createdAt,value
2023-03-04T00:00:37.936Z,100251.09
2023-03-04T00:03:21.821Z,100281.25
2023-03-04T00:06:07.751Z,100249.75
2023-03-04T00:08:51.563Z,100285.97
2023-03-04T00:11:35.662Z,100292.06
2023-03-04T00:14:19.425Z,100283.75
2023-03-04T00:17:04.511Z,100280.78
2023-03-04T00:19:48.643Z,100285.25
2023-03-04T00:22:33.748Z,100276.31
2023-03-04T00:25:17.546Z,100295.53
2023-03-04T00:28:01.320Z,100299.00
2023-03-04T00:30:45.099Z,100301.22
2023-03-04T00:33:28.905Z,100303.44
2023-03-04T00:36:12.720Z,100282.50
2023-03-04T00:38:57.866Z,100288.88
2023-03-04T00:41:42.125Z,100294.84
2023-03-04T00:44:25.900Z,100298.09
2023-03-04T00:47:09.724Z,100290.22
2023-03-04T00:49:53.464Z,100294.91
2023-03-04T00:52:37.449Z,100289.13
2023-03-04T00:55:22.589Z,100286.78
2023-03-04T00:58:06.344Z,100277.84
2023-03-04T01:00:50.131Z,100268.03
2023-03-04T01:03:35.563Z,100278.72
2023-03-04T01:06:19.294Z,100274.44
2023-03-04T01:09:03.136Z,100279.91
2023-03-04T01:11:48.551Z,100270.91
2023-03-04T01:14:32.315Z,100273.31
2023-03-04T01:17:16.090Z,100235.50
2023-03-04T01:19:59.911Z,100250.97
2023-03-04T01:22:43.662Z,100279.78
2023-03-04T01:25:27.518Z,100273.59
2023-03-04T01:28:12.750Z,100266.13
2023-03-04T01:30:58.277Z,100272.88
2023-03-04T01:33:42.031Z,100260.66
2023-03-04T01:36:27.140Z,100263.84
2023-03-04T01:39:10.893Z,100258.28
2023-03-04T01:41:54.639Z,100266.22
2023-03-04T01:44:39.841Z,100259.72
2023-03-04T01:47:27.322Z,100254.25
2023-03-04T01:50:18.832Z,100251.16
2023-03-04T01:53:02.920Z,100243.91
2023-03-04T01:55:46.910Z,100240.41
2023-03-04T01:58:32.167Z,100242.75
2023-03-04T02:01:17.261Z,100233.66
2023-03-04T02:04:01.599Z,100225.91
2023-03-04T02:06:47.722Z,100244.31
2023-03-04T02:09:33.199Z,100237.03
2023-03-04T02:12:18.742Z,100242.31
2023-03-04T02:15:02.585Z,100238.00
2023-03-04T02:17:51.287Z,100195.44
2023-03-04T02:20:45.064Z,100235.47
2023-03-04T02:23:34.289Z,100237.91
2023-03-04T02:26:21.218Z,100240.13
2023-03-04T02:29:07.775Z,100235.94
2023-03-04T02:31:53.155Z,100226.13
2023-03-04T02:34:37.838Z,100217.31
2023-03-04T02:37:21.812Z,100232.88
2023-03-04T02:40:15.026Z,100212.19
2023-03-04T02:43:02.161Z,100224.19
2023-03-04T02:45:47.652Z,100231.91
2023-03-04T02:48:31.727Z,100237.84
2023-03-04T02:51:15.545Z,100242.66
2023-03-04T02:53:59.559Z,100231.16
2023-03-04T02:56:46.789Z,100233.09
2023-03-04T02:59:32.982Z,100238.16
2023-03-04T03:02:16.768Z,100255.44
2023-03-04T03:05:00.608Z,100244.00
2023-03-04T03:07:44.825Z,100249.81
2023-03-04T03:10:29.650Z,100252.03
2023-03-04T03:13:13.632Z,100254.25
2023-03-04T03:15:59.246Z,100263.22
2023-03-04T03:18:43.093Z,100110.53
2023-03-04T03:21:26.870Z,100250.09
2023-03-04T03:24:10.730Z,100256.09
2023-03-04T03:26:54.581Z,100256.78
2023-03-04T03:29:38.554Z,100250.56
2023-03-04T03:32:26.327Z,100245.91
2023-03-04T03:35:10.473Z,100254.97
2023-03-04T03:37:54.220Z,100254.00
2023-03-04T03:40:38.144Z,100241.63
2023-03-04T03:43:21.869Z,100255.66
2023-03-04T03:46:06.018Z,100232.28
2023-03-04T03:48:51.241Z,100247.69
2023-03-04T03:51:35.112Z,100246.34
2023-03-04T03:54:18.894Z,100258.31
2023-03-04T03:57:02.647Z,100259.00
2023-03-04T03:59:46.469Z,100241.63
2023-03-04T04:02:30.372Z,100231.22
2023-03-04T04:05:16.108Z,100253.25
2023-03-04T04:07:59.894Z,100236.69
2023-03-04T04:10:44.572Z,100253.50
2023-03-04T04:13:28.386Z,100245.91
2023-03-04T04:16:12.889Z,100266.53
2023-03-04T04:18:56.761Z,100248.25
2023-03-04T04:21:41.837Z,100266.72
2023-03-04T04:24:25.741Z,100218.28
2023-03-04T04:27:09.657Z,100267.25
2023-03-04T04:29:53.471Z,100266.09
2023-03-04T04:32:37.259Z,100266.94
2023-03-04T04:35:21.290Z,100267.44
2023-03-04T04:38:06.614Z,100233.00
2023-03-04T04:40:50.366Z,100263.22
2023-03-04T04:43:34.206Z,100264.34
2023-03-04T04:46:19.111Z,100242.50
2023-03-04T04:49:03.377Z,100278.22
2023-03-04T04:51:47.823Z,100249.22
2023-03-04T04:54:33.334Z,100290.09
2023-03-04T04:57:17.270Z,100286.88
2023-03-04T05:00:01.137Z,100297.78
2023-03-04T05:02:47.452Z,100197.56
2023-03-04T05:05:31.322Z,100306.34
2023-03-04T05:08:15.123Z,100305.03
2023-03-04T05:11:00.387Z,100304.53
2023-03-04T05:13:44.436Z,100291.44
2023-03-04T05:16:28.299Z,100316.34
2023-03-04T05:19:12.375Z,100315.03
2023-03-04T05:21:56.228Z,100317.78
2023-03-04T05:24:40.023Z,100331.81
2023-03-04T05:27:25.282Z,100324.78
2023-03-04T05:30:10.625Z,100330.22
2023-03-04T05:32:54.679Z,100337.06
2023-03-04T05:35:39.513Z,100337.13
2023-03-04T05:38:24.144Z,100340.63
2023-03-04T05:41:08.819Z,100336.69
2023-03-04T05:43:54.029Z,100328.78
2023-03-04T05:46:38.021Z,100335.44
2023-03-04T05:49:21.971Z,100337.94
2023-03-04T05:52:05.638Z,100337.44
2023-03-04T05:54:49.399Z,100322.34
2023-03-04T05:57:33.412Z,100322.34
2023-03-04T06:00:19.153Z,100325.63
2023-03-04T06:03:03.021Z,100334.34
2023-03-04T06:05:47.115Z,100330.84
2023-03-04T06:08:30.976Z,100333.09
2023-03-04T06:11:14.873Z,100329.78
2023-03-04T06:13:58.869Z,100337.91
2023-03-04T06:16:44.122Z,100335.75
2023-03-04T06:19:27.891Z,100341.41
2023-03-04T06:22:12.413Z,100333.63
2023-03-04T06:24:56.593Z,100341.84
2023-03-04T06:27:40.616Z,100337.50
2023-03-04T06:30:24.840Z,100342.28
2023-03-04T06:33:10.242Z,100335.19
2023-03-04T06:35:56.466Z,100333.00
2023-03-04T06:38:40.492Z,100321.53
2023-03-04T06:41:24.333Z,100331.34
2023-03-04T06:44:08.493Z,100315.75
2023-03-04T06:46:52.517Z,100325.25
2023-03-04T06:49:37.779Z,100321.84
2023-03-04T06:52:21.619Z,100310.28
2023-03-04T06:55:06.584Z,100316.16
2023-03-04T06:57:50.360Z,100307.97
2023-03-04T07:00:34.358Z,100294.28
2023-03-04T07:03:18.274Z,100210.16
2023-03-04T07:06:03.466Z,100307.28
2023-03-04T07:08:48.008Z,100300.03
2023-03-04T07:11:31.918Z,100283.31
2023-03-04T07:14:15.861Z,100261.94
2023-03-04T07:16:59.894Z,100288.88
2023-03-04T07:19:44.787Z,100276.81
2023-03-04T07:22:30.046Z,100252.84
2023-03-04T07:25:13.854Z,100275.09
2023-03-04T07:27:57.692Z,100274.69
2023-03-04T07:30:41.541Z,100271.31
2023-03-04T07:33:25.319Z,100272.25
2023-03-04T07:36:09.349Z,100281.41
2023-03-04T07:38:55.946Z,100258.41
2023-03-04T07:41:39.885Z,100276.25
2023-03-04T07:44:23.630Z,100270.50
2023-03-04T07:47:07.501Z,100281.78
2023-03-04T07:49:51.621Z,100256.75
2023-03-04T07:52:38.999Z,100282.13
2023-03-04T07:55:24.222Z,100281.63
2023-03-04T07:58:07.998Z,100287.72
2023-03-04T08:00:51.759Z,100271.03
2023-03-04T08:03:35.748Z,100269.81
2023-03-04T08:06:21.603Z,100272.41
2023-03-04T08:09:07.748Z,100263.41
2023-03-04T08:11:52.962Z,100268.47
2023-03-04T08:14:36.833Z,100262.47
2023-03-04T08:17:20.606Z,100262.41
2023-03-04T08:20:04.817Z,100254.53
2023-03-04T08:22:48.664Z,100242.97
2023-03-04T08:25:32.548Z,100253.75
2023-03-04T08:28:18.556Z,100268.13
2023-03-04T08:31:02.366Z,100259.59
2023-03-04T08:33:46.838Z,100265.81
2023-03-04T08:36:30.722Z,100239.09
2023-03-04T08:39:16.716Z,100251.38
2023-03-04T08:42:00.622Z,100256.78
2023-03-04T08:44:45.902Z,100252.41
2023-03-04T08:47:29.755Z,100261.13
2023-03-04T08:50:13.691Z,100254.03
2023-03-04T08:52:57.604Z,100254.13
2023-03-04T08:55:42.264Z,100239.66
2023-03-04T08:58:26.226Z,100247.47
2023-03-04T09:01:13.383Z,100252.91
2023-03-04T09:03:57.382Z,100250.16
2023-03-04T09:06:41.552Z,100249.81
2023-03-04T09:09:25.448Z,100250.91
2023-03-04T09:12:09.342Z,100244.19
2023-03-04T09:15:08.328Z,100246.59
2023-03-04T09:17:55.276Z,100241.63
2023-03-04T09:20:39.109Z,100220.13
2023-03-04T09:23:23.443Z,100241.81
2023-03-04T09:26:16.485Z,100239.13
2023-03-04T09:29:02.392Z,100230.81
2023-03-04T09:31:46.654Z,100205.16
2023-03-04T09:34:32.010Z,100216.69
2023-03-04T09:37:15.866Z,100194.38
2023-03-04T09:39:59.614Z,100206.25
2023-03-04T09:42:49.093Z,100214.31
2023-03-04T09:45:39.375Z,100205.84
2023-03-04T09:48:26.233Z,100203.75
2023-03-04T09:51:21.420Z,100173.88
2023-03-04T09:54:09.195Z,100188.53
2023-03-04T09:56:57.287Z,100152.13
2023-03-04T09:59:47.296Z,100190.50
2023-03-04T10:02:43.336Z,100180.19
2023-03-04T10:05:28.883Z,100183.44
2023-03-04T10:08:37.035Z,100178.19
2023-03-04T10:11:27.769Z,100133.50
2023-03-04T10:14:33.833Z,100171.78
2023-03-04T10:17:23.779Z,100170.16
2023-03-04T10:20:13.818Z,100168.78
2023-03-04T10:23:00.027Z,100136.00
2023-03-04T10:25:51.803Z,100158.56
2023-03-04T10:28:36.707Z,100154.91
2023-03-04T10:31:28.684Z,100160.28
2023-03-04T10:34:13.699Z,100161.47
2023-03-04T10:37:00.653Z,100130.09
2023-03-04T10:39:46.735Z,100152.72
2023-03-04T10:42:37.628Z,100147.44
2023-03-04T10:45:23.668Z,100147.72
2023-03-04T10:48:08.037Z,100134.84
2023-03-04T10:50:51.985Z,100131.31
2023-03-04T10:53:40.696Z,100117.78
2023-03-04T10:56:34.971Z,100101.09
2023-03-04T10:59:41.996Z,100109.56
2023-03-04T11:02:28.164Z,100072.31
2023-03-04T11:05:19.646Z,100096.06
2023-03-04T11:08:03.475Z,100097.94
2023-03-04T11:10:47.656Z,100074.50
2023-03-04T11:13:32.802Z,100077.91
2023-03-04T11:16:27.925Z,100082.13
2023-03-04T11:19:17.920Z,100069.84
2023-03-04T11:22:02.911Z,100071.28
2023-03-04T11:24:52.597Z,100072.72
2023-03-04T11:27:43.234Z,100055.69
2023-03-04T11:30:42.785Z,100044.19
2023-03-04T11:33:37.329Z,100055.84
2023-03-04T11:36:32.690Z,100009.91
2023-03-04T11:39:23.200Z,100033.78
2023-03-04T11:42:14.601Z,100041.44
2023-03-04T11:44:58.812Z,100040.72
2023-03-04T11:48:04.503Z,100034.63
2023-03-04T11:50:54.799Z,100028.44
2023-03-04T11:53:50.843Z,100022.22
2023-03-04T11:56:40.899Z,100019.56
2023-03-04T11:59:52.268Z,100023.22
2023-03-04T12:02:44.747Z,100008.34
2023-03-04T12:05:36.416Z,100015.09
2023-03-04T12:08:44.490Z,100022.88
2023-03-04T12:11:40.322Z,100020.81
2023-03-04T12:14:30.758Z,100004.94
2023-03-04T12:17:40.468Z,100028.44
2023-03-04T12:20:38.435Z,100020.25
2023-03-04T12:23:34.915Z,100006.22
2023-03-04T12:26:34.435Z,100024.81
2023-03-04T12:29:27.941Z,100027.41
2023-03-04T12:32:19.535Z,100020.38
2023-03-04T12:35:21.494Z,100004.91
2023-03-04T12:38:20.890Z,100019.66
2023-03-04T12:41:21.384Z,100020.84
2023-03-04T12:44:17.032Z,100013.28
2023-03-04T12:47:18.614Z,100000.44
2023-03-04T12:50:22.406Z,100013.41
2023-03-04T12:53:17.529Z,100011.19
2023-03-04T12:56:03.623Z,99993.34
2023-03-04T12:58:47.646Z,100006.97
2023-03-04T13:01:40.096Z,100002.75
2023-03-04T13:04:29.751Z,99983.75
2023-03-04T13:07:20.218Z,99985.59
2023-03-04T13:10:11.906Z,99975.59
2023-03-04T13:12:58.186Z,99981.88
2023-03-04T13:15:42.207Z,99975.19
2023-03-04T13:18:35.599Z,99976.06
2023-03-04T13:21:25.456Z,99968.38
2023-03-04T13:24:46.019Z,99967.97
2023-03-04T13:27:51.913Z,99955.75
2023-03-04T13:31:04.746Z,99962.56
2023-03-04T13:34:06.529Z,99953.66
2023-03-04T13:36:57.290Z,99941.44
2023-03-04T13:39:41.238Z,99934.84
2023-03-04T13:42:42.988Z,99944.72
2023-03-04T13:45:38.962Z,99937.72
2023-03-04T13:48:28.590Z,99922.00
2023-03-04T13:51:28.932Z,99938.63
2023-03-04T13:54:24.107Z,99935.44
2023-03-04T13:57:20.654Z,99929.88
2023-03-04T14:00:06.842Z,99901.25
2023-03-04T14:02:52.470Z,99892.53
2023-03-04T14:05:36.421Z,99915.00
2023-03-04T14:08:22.439Z,99881.34
2023-03-04T14:11:06.519Z,99879.75
2023-03-04T14:13:50.770Z,99878.28
2023-03-04T14:16:40.964Z,99903.19
2023-03-04T14:19:29.654Z,99907.38
2023-03-04T14:22:23.149Z,99889.94
2023-03-04T14:25:22.303Z,99893.44
2023-03-04T14:28:11.767Z,99895.38
2023-03-04T14:30:58.388Z,99880.28
2023-03-04T14:33:47.127Z,99883.38
2023-03-04T14:36:33.912Z,99885.91
2023-03-04T14:39:20.098Z,99861.56
2023-03-04T14:42:11.566Z,99880.88
2023-03-04T14:44:59.800Z,99874.63
2023-03-04T14:47:47.645Z,99876.47
2023-03-04T14:50:31.651Z,99870.00
2023-03-04T14:53:17.977Z,99876.84
2023-03-04T14:56:04.669Z,99867.94
2023-03-04T14:58:57.161Z,99868.69
2023-03-04T15:01:40.980Z,99854.38
2023-03-04T15:04:24.958Z,99859.78
2023-03-04T15:07:19.844Z,99862.63
2023-03-04T15:10:08.360Z,99866.44
2023-03-04T15:12:54.398Z,99861.94
2023-03-04T15:15:42.134Z,99863.13
2023-03-04T15:18:27.308Z,99849.66
2023-03-04T15:21:36.933Z,99849.41
2023-03-04T15:24:21.705Z,99842.25
2023-03-04T15:27:08.316Z,99855.16
2023-03-04T15:29:56.060Z,99852.00
2023-03-04T15:32:41.416Z,99858.19
2023-03-04T15:35:26.566Z,99859.03
2023-03-04T15:38:13.954Z,99852.56
2023-03-04T15:40:58.510Z,99854.25
2023-03-04T15:43:42.468Z,99851.13
2023-03-04T15:46:26.378Z,99855.66
2023-03-04T15:49:12.048Z,99849.97
2023-03-04T15:51:55.774Z,99842.44
2023-03-04T15:54:39.582Z,99837.16
2023-03-04T15:57:26.073Z,99820.63
2023-03-04T16:00:12.726Z,99834.28
2023-03-04T16:02:56.557Z,99837.72
2023-03-04T16:05:42.105Z,99833.94
2023-03-04T16:08:26.358Z,99830.72
2023-03-04T16:11:16.550Z,99833.31
2023-03-04T16:14:00.326Z,99804.59
2023-03-04T16:16:46.612Z,99805.78
2023-03-04T16:19:30.530Z,99824.78
2023-03-04T16:22:17.640Z,99798.63
2023-03-04T16:25:01.463Z,99838.72
2023-03-04T16:27:45.998Z,99809.06
2023-03-04T16:30:29.760Z,99824.38
2023-03-04T16:33:15.166Z,99789.38
2023-03-04T16:35:59.360Z,99826.31
2023-03-04T16:38:44.753Z,99840.03
2023-03-04T16:41:30.779Z,99836.19
2023-03-04T16:44:16.078Z,99839.50
2023-03-04T16:46:59.896Z,99821.66
2023-03-04T16:49:44.113Z,99841.38
2023-03-04T16:52:32.050Z,99835.81
2023-03-04T16:55:21.541Z,99842.44
2023-03-04T16:58:08.007Z,99837.66
2023-03-04T17:00:52.152Z,99838.69
2023-03-04T17:03:36.055Z,99812.19
2023-03-04T17:06:20.855Z,99848.53
2023-03-04T17:09:04.791Z,99851.06
2023-03-04T17:11:50.140Z,99848.81
2023-03-04T17:14:34.007Z,99847.34
2023-03-04T17:17:18.569Z,99848.91
2023-03-04T17:20:06.150Z,99843.31
2023-03-04T17:22:50.473Z,99841.56
2023-03-04T17:25:34.557Z,99848.56
2023-03-04T17:28:19.656Z,99850.28
2023-03-04T17:31:09.367Z,99844.94
2023-03-04T17:33:53.238Z,99849.94
2023-03-04T17:36:37.530Z,99846.22
2023-03-04T17:39:21.481Z,99849.19
2023-03-04T17:42:07.099Z,99835.13
2023-03-04T17:44:52.498Z,99840.16
2023-03-04T17:47:36.635Z,99845.50
2023-03-04T17:50:21.242Z,99852.47
2023-03-04T17:53:05.234Z,99855.72
2023-03-04T17:55:52.589Z,99858.88
2023-03-04T17:58:37.838Z,99854.13
2023-03-04T18:01:23.633Z,99842.81
2023-03-04T18:04:07.734Z,99852.09
2023-03-04T18:06:51.540Z,99853.09
2023-03-04T18:09:35.677Z,99822.88
2023-03-04T18:12:19.559Z,99851.91
2023-03-04T18:15:03.376Z,99854.50
2023-03-04T18:17:50.337Z,99846.56
2023-03-04T18:20:34.575Z,99850.09
2023-03-04T18:23:18.596Z,99848.84
2023-03-04T18:26:04.509Z,99853.38
2023-03-04T18:28:48.390Z,99854.38
2023-03-04T18:31:33.074Z,99869.94
2023-03-04T18:34:18.269Z,99858.91
2023-03-04T18:37:02.129Z,99865.53
2023-03-04T18:39:45.944Z,99853.13
2023-03-04T18:42:29.811Z,99865.06
2023-03-04T18:45:15.068Z,99857.34
2023-03-04T18:48:00.736Z,99861.03
2023-03-04T18:50:46.067Z,99851.41
2023-03-04T18:53:30.979Z,99853.38
2023-03-04T18:56:19.619Z,99853.91
2023-03-04T18:59:03.706Z,99855.59
2023-03-04T19:01:48.517Z,99856.25
2023-03-04T19:04:32.860Z,99859.34
2023-03-04T19:07:18.051Z,99855.00
2023-03-04T19:10:02.051Z,99801.38
2023-03-04T19:12:47.503Z,99858.16
2023-03-04T19:15:31.388Z,99852.25
2023-03-04T19:18:15.172Z,99852.97
2023-03-04T19:21:02.986Z,99816.22
2023-03-04T19:23:49.504Z,99859.09
2023-03-04T19:26:33.392Z,99860.09
2023-03-04T19:29:17.309Z,99856.25
2023-03-04T19:32:01.264Z,99827.78
2023-03-04T19:34:45.332Z,99862.13
2023-03-04T19:37:29.370Z,99865.41
2023-03-04T19:40:15.158Z,99816.09
2023-03-04T19:42:59.102Z,99867.06
2023-03-04T19:45:43.237Z,99843.16
2023-03-04T19:48:27.076Z,99858.47
2023-03-04T19:51:18.464Z,99869.50
2023-03-04T19:54:02.792Z,99867.47
2023-03-04T19:56:48.216Z,99867.94
2023-03-04T19:59:32.167Z,99865.38
2023-03-04T20:02:15.999Z,99868.00
2023-03-04T20:05:00.328Z,99847.66
2023-03-04T20:07:45.061Z,99851.97
2023-03-04T20:10:32.957Z,99848.84
2023-03-04T20:13:18.270Z,99844.72
2023-03-04T20:16:02.200Z,99841.66
2023-03-04T20:18:46.101Z,99840.78
2023-03-04T20:21:32.701Z,99847.81
2023-03-04T20:24:18.557Z,99829.66
2023-03-04T20:27:02.454Z,99840.53
2023-03-04T20:29:49.090Z,99825.91
2023-03-04T20:32:33.102Z,99833.63
2023-03-04T20:35:17.124Z,99827.94
2023-03-04T20:38:01.083Z,99814.16
2023-03-04T20:40:44.834Z,99827.69
2023-03-04T20:43:29.705Z,99788.63
2023-03-04T20:46:29.960Z,99818.78
2023-03-04T20:49:16.288Z,99820.78
2023-03-04T20:52:06.237Z,99818.84
2023-03-04T20:54:50.121Z,99819.94
2023-03-04T20:57:34.044Z,99810.97
2023-03-04T21:00:18.383Z,99807.63
2023-03-04T21:03:03.666Z,99766.34
2023-03-04T21:05:47.456Z,99799.66
2023-03-04T21:08:31.780Z,99807.09
2023-03-04T21:11:17.863Z,99795.88
2023-03-04T21:14:01.854Z,99791.25
2023-03-04T21:16:45.645Z,99794.19
2023-03-04T21:19:33.161Z,99737.59
2023-03-04T21:22:20.184Z,99759.44
2023-03-04T21:25:03.926Z,99777.56
2023-03-04T21:27:47.718Z,99779.28
2023-03-04T21:30:31.529Z,99761.34
2023-03-04T21:33:19.256Z,99735.41
2023-03-04T21:36:04.942Z,99768.75
2023-03-04T21:38:48.891Z,99751.94
2023-03-04T21:41:32.979Z,99731.13
2023-03-04T21:44:27.954Z,99740.16
2023-03-04T21:47:12.903Z,99766.13
2023-03-04T21:49:56.946Z,99687.34
2023-03-04T21:52:42.709Z,99730.16
2023-03-04T21:55:26.766Z,99773.28
2023-03-04T21:58:10.700Z,99675.88
2023-03-04T22:00:54.922Z,99759.78
2023-03-04T22:03:39.050Z,99714.31
2023-03-04T22:06:24.554Z,99754.84
2023-03-04T22:09:09.933Z,99723.94
2023-03-04T22:11:53.789Z,99723.31
2023-03-04T22:14:37.912Z,99727.59
2023-03-04T22:17:22.033Z,99715.28
2023-03-04T22:20:07.218Z,99755.53
2023-03-04T22:22:51.130Z,99717.41
2023-03-04T22:25:38.849Z,99750.59
2023-03-04T22:28:25.164Z,99755.59
2023-03-04T22:31:16.955Z,99748.22
2023-03-04T22:34:02.704Z,99762.13
2023-03-04T22:36:48.880Z,99752.41
2023-03-04T22:39:32.680Z,99741.25
2023-03-04T22:42:17.975Z,99758.25
2023-03-04T22:45:01.887Z,99758.56
2023-03-04T22:47:52.304Z,99748.38
2023-03-04T22:50:36.854Z,99740.53
2023-03-04T22:53:20.692Z,99743.78
2023-03-04T22:56:04.769Z,99737.84
2023-03-04T22:58:50.128Z,99730.84
2023-03-04T23:01:33.903Z,99726.50
2023-03-04T23:04:17.819Z,99724.09
2023-03-04T23:07:01.597Z,99717.88
2023-03-04T23:09:45.384Z,99717.53
2023-03-04T23:12:29.118Z,99705.59
2023-03-04T23:15:15.845Z,99703.69
2023-03-04T23:18:00.126Z,99703.47
2023-03-04T23:20:44.303Z,99690.66
2023-03-04T23:23:28.055Z,99691.00
2023-03-04T23:26:16.422Z,99707.25
2023-03-04T23:29:01.551Z,99714.13
2023-03-04T23:31:46.840Z,99714.56
2023-03-04T23:34:31.006Z,99696.59
2023-03-04T23:37:14.847Z,99708.72
2023-03-04T23:39:58.583Z,99703.22
2023-03-04T23:42:42.451Z,99712.84
2023-03-04T23:45:26.253Z,99712.75
2023-03-04T23:48:11.396Z,99700.44
2023-03-04T23:50:55.442Z,99713.44
2023-03-04T23:53:40.039Z,99712.59
2023-03-04T23:56:25.393Z,99718.09
2023-03-04T23:59:09.119Z,99707.81
